<?xml version="1.0" encoding="UTF-8" standalone="no" ?>
<gpx xmlns="http://www.topografix.com/GPX/1/1" xmlns:xsi="http://www.w3.org/2001/XMLSchema-instance" xsi:schemaLocation="http://www.topografix.com/GPX/1/1 http://www.topografix.com/GPX/1/1/gpx.xsd" version="1.1" creator="VisuGPX - https://www.visugpx.com">
  <metadata>
    <name>RSPFY-Rochers d'Angennes</name>
    <desc><![CDATA[Marche nordique au départ du parking des Rochers d'Angennes près de Poigny-La-Forêt.
NOTA: après de grosses pluies le parcours est très boueux entre le km 5 et le km 10.]]></desc>
  </metadata>
  <trk>
    <name><![CDATA[2021-05-20 09:06]]></name>
    <desc><![CDATA[<p>Heure de départ: 09:06 20 mai 2021<br/>Heure d'arrivée: 11:58 20 mai 2021<br/>Distance: 12 km (02:51)<br/>Temps déplacement: 02:19<br/>Vitesse moyenne: 4,2 km/h<br/>Vitesse moyenne mouv.: 5,17 km/h<br/>Vitesse Max.: 8,4 km/h<br/>Altitude minimale: 107 m<br/>Altitude maximale: 184 m<br/>Vitesse de montée: 303,9 m/h<br/>Vitesse de descente: -289 m/h<br/>Gain d'altitude: 432 m<br/>Perte d'altitude: -415 m<br/>Temps de montée: 01:25<br/>Temps de descente: 01:26<br/></p><hr align="center" width="480" style="height: 2px; width: 517px"/>]]></desc>
    <trkseg>
      <trkpt lat="48.67255" lon="1.73769">
        <ele>151.9</ele>
        <time>2021-05-20T07:06:39Z</time>
      </trkpt>
      <trkpt lat="48.67251" lon="1.73742">
        <ele>152.9</ele>
        <time>2021-05-20T07:08:39Z</time>
      </trkpt>
      <trkpt lat="48.6725" lon="1.73714">
        <ele>153</ele>
        <time>2021-05-20T07:08:55Z</time>
      </trkpt>
      <trkpt lat="48.67251" lon="1.73685">
        <ele>152.9</ele>
        <time>2021-05-20T07:09:10Z</time>
      </trkpt>
      <trkpt lat="48.67247" lon="1.73657">
        <ele>153.2</ele>
        <time>2021-05-20T07:09:24Z</time>
      </trkpt>
      <trkpt lat="48.67245" lon="1.73628">
        <ele>152.2</ele>
        <time>2021-05-20T07:09:37Z</time>
      </trkpt>
      <trkpt lat="48.67233" lon="1.73605">
        <ele>153.5</ele>
        <time>2021-05-20T07:09:50Z</time>
      </trkpt>
      <trkpt lat="48.67227" lon="1.73578">
        <ele>153.7</ele>
        <time>2021-05-20T07:10:06Z</time>
      </trkpt>
      <trkpt lat="48.67221" lon="1.73552">
        <ele>153.8</ele>
        <time>2021-05-20T07:10:19Z</time>
      </trkpt>
      <trkpt lat="48.6722" lon="1.73523">
        <ele>152.7</ele>
        <time>2021-05-20T07:10:29Z</time>
      </trkpt>
      <trkpt lat="48.67211" lon="1.73499">
        <ele>153</ele>
        <time>2021-05-20T07:10:43Z</time>
      </trkpt>
      <trkpt lat="48.67202" lon="1.73474">
        <ele>152.7</ele>
        <time>2021-05-20T07:10:59Z</time>
      </trkpt>
      <trkpt lat="48.67191" lon="1.73451">
        <ele>152</ele>
        <time>2021-05-20T07:11:12Z</time>
      </trkpt>
      <trkpt lat="48.67186" lon="1.73424">
        <ele>149.9</ele>
        <time>2021-05-20T07:11:25Z</time>
      </trkpt>
      <trkpt lat="48.67173" lon="1.73404">
        <ele>149.1</ele>
        <time>2021-05-20T07:11:36Z</time>
      </trkpt>
      <trkpt lat="48.6716" lon="1.73381">
        <ele>148.4</ele>
        <time>2021-05-20T07:11:47Z</time>
      </trkpt>
      <trkpt lat="48.67147" lon="1.7336">
        <ele>147.9</ele>
        <time>2021-05-20T07:11:58Z</time>
      </trkpt>
      <trkpt lat="48.6713" lon="1.73349">
        <ele>148</ele>
        <time>2021-05-20T07:12:09Z</time>
      </trkpt>
      <trkpt lat="48.67113" lon="1.73335">
        <ele>147.2</ele>
        <time>2021-05-20T07:12:23Z</time>
      </trkpt>
      <trkpt lat="48.67098" lon="1.73322">
        <ele>147.2</ele>
        <time>2021-05-20T07:12:35Z</time>
      </trkpt>
      <trkpt lat="48.6708" lon="1.73315">
        <ele>147.2</ele>
        <time>2021-05-20T07:12:54Z</time>
      </trkpt>
      <trkpt lat="48.67062" lon="1.73324">
        <ele>146.9</ele>
        <time>2021-05-20T07:13:11Z</time>
      </trkpt>
      <trkpt lat="48.67044" lon="1.73335">
        <ele>146.8</ele>
        <time>2021-05-20T07:13:24Z</time>
      </trkpt>
      <trkpt lat="48.67027" lon="1.73344">
        <ele>147.1</ele>
        <time>2021-05-20T07:13:39Z</time>
      </trkpt>
      <trkpt lat="48.67011" lon="1.73359">
        <ele>147.8</ele>
        <time>2021-05-20T07:13:53Z</time>
      </trkpt>
      <trkpt lat="48.66997" lon="1.73377">
        <ele>148.7</ele>
        <time>2021-05-20T07:14:09Z</time>
      </trkpt>
      <trkpt lat="48.66979" lon="1.73377">
        <ele>148.9</ele>
        <time>2021-05-20T07:14:22Z</time>
      </trkpt>
      <trkpt lat="48.6696" lon="1.73378">
        <ele>149.2</ele>
        <time>2021-05-20T07:14:34Z</time>
      </trkpt>
      <trkpt lat="48.66943" lon="1.73369">
        <ele>148.8</ele>
        <time>2021-05-20T07:14:48Z</time>
      </trkpt>
      <trkpt lat="48.66928" lon="1.73351">
        <ele>147.9</ele>
        <time>2021-05-20T07:15:01Z</time>
      </trkpt>
      <trkpt lat="48.66924" lon="1.73324">
        <ele>146.2</ele>
        <time>2021-05-20T07:15:17Z</time>
      </trkpt>
      <trkpt lat="48.66923" lon="1.73295">
        <ele>144.2</ele>
        <time>2021-05-20T07:15:31Z</time>
      </trkpt>
      <trkpt lat="48.66908" lon="1.73276">
        <ele>143.1</ele>
        <time>2021-05-20T07:15:46Z</time>
      </trkpt>
      <trkpt lat="48.66891" lon="1.73265">
        <ele>142.7</ele>
        <time>2021-05-20T07:15:59Z</time>
      </trkpt>
      <trkpt lat="48.66872" lon="1.73262">
        <ele>143</ele>
        <time>2021-05-20T07:16:16Z</time>
      </trkpt>
      <trkpt lat="48.66854" lon="1.73265">
        <ele>143.7</ele>
        <time>2021-05-20T07:16:29Z</time>
      </trkpt>
      <trkpt lat="48.66837" lon="1.73255">
        <ele>143.3</ele>
        <time>2021-05-20T07:16:40Z</time>
      </trkpt>
      <trkpt lat="48.66821" lon="1.7324">
        <ele>143.2</ele>
        <time>2021-05-20T07:16:54Z</time>
      </trkpt>
      <trkpt lat="48.66805" lon="1.73226">
        <ele>143.2</ele>
        <time>2021-05-20T07:17:10Z</time>
      </trkpt>
      <trkpt lat="48.6679" lon="1.73211">
        <ele>143.3</ele>
        <time>2021-05-20T07:17:23Z</time>
      </trkpt>
      <trkpt lat="48.66772" lon="1.73199">
        <ele>143.6</ele>
        <time>2021-05-20T07:17:37Z</time>
      </trkpt>
      <trkpt lat="48.66753" lon="1.73189">
        <ele>144.2</ele>
        <time>2021-05-20T07:17:51Z</time>
      </trkpt>
      <trkpt lat="48.66736" lon="1.73179">
        <ele>144</ele>
        <time>2021-05-20T07:18:04Z</time>
      </trkpt>
      <trkpt lat="48.66724" lon="1.73159">
        <ele>143.3</ele>
        <time>2021-05-20T07:18:19Z</time>
      </trkpt>
      <trkpt lat="48.66705" lon="1.73149">
        <ele>143.4</ele>
        <time>2021-05-20T07:18:32Z</time>
      </trkpt>
      <trkpt lat="48.66687" lon="1.73156">
        <ele>144.1</ele>
        <time>2021-05-20T07:18:47Z</time>
      </trkpt>
      <trkpt lat="48.66676" lon="1.73178">
        <ele>145.1</ele>
        <time>2021-05-20T07:19:06Z</time>
      </trkpt>
      <trkpt lat="48.66669" lon="1.73204">
        <ele>145.9</ele>
        <time>2021-05-20T07:19:23Z</time>
      </trkpt>
      <trkpt lat="48.66657" lon="1.73227">
        <ele>145.9</ele>
        <time>2021-05-20T07:19:42Z</time>
      </trkpt>
      <trkpt lat="48.66651" lon="1.73255">
        <ele>146.1</ele>
        <time>2021-05-20T07:19:54Z</time>
      </trkpt>
      <trkpt lat="48.66644" lon="1.73282">
        <ele>146</ele>
        <time>2021-05-20T07:20:06Z</time>
      </trkpt>
      <trkpt lat="48.66634" lon="1.73304">
        <ele>145.7</ele>
        <time>2021-05-20T07:20:18Z</time>
      </trkpt>
      <trkpt lat="48.66626" lon="1.7333">
        <ele>145.5</ele>
        <time>2021-05-20T07:20:28Z</time>
      </trkpt>
      <trkpt lat="48.66614" lon="1.73354">
        <ele>145</ele>
        <time>2021-05-20T07:20:39Z</time>
      </trkpt>
      <trkpt lat="48.6661" lon="1.73382">
        <ele>144.8</ele>
        <time>2021-05-20T07:20:49Z</time>
      </trkpt>
      <trkpt lat="48.66605" lon="1.7341">
        <ele>144.6</ele>
        <time>2021-05-20T07:20:58Z</time>
      </trkpt>
      <trkpt lat="48.66598" lon="1.73436">
        <ele>144.6</ele>
        <time>2021-05-20T07:21:08Z</time>
      </trkpt>
      <trkpt lat="48.66592" lon="1.73462">
        <ele>144.8</ele>
        <time>2021-05-20T07:21:19Z</time>
      </trkpt>
      <trkpt lat="48.66586" lon="1.73488">
        <ele>144.9</ele>
        <time>2021-05-20T07:21:42Z</time>
      </trkpt>
      <trkpt lat="48.6657" lon="1.73471">
        <ele>144.9</ele>
        <time>2021-05-20T07:22:20Z</time>
      </trkpt>
      <trkpt lat="48.66559" lon="1.7345">
        <ele>145.2</ele>
        <time>2021-05-20T07:22:36Z</time>
      </trkpt>
      <trkpt lat="48.6655" lon="1.73424">
        <ele>145.5</ele>
        <time>2021-05-20T07:22:49Z</time>
      </trkpt>
      <trkpt lat="48.66536" lon="1.73404">
        <ele>146.6</ele>
        <time>2021-05-20T07:23:01Z</time>
      </trkpt>
      <trkpt lat="48.66528" lon="1.73378">
        <ele>147.6</ele>
        <time>2021-05-20T07:23:13Z</time>
      </trkpt>
      <trkpt lat="48.66518" lon="1.73355">
        <ele>148.9</ele>
        <time>2021-05-20T07:23:27Z</time>
      </trkpt>
      <trkpt lat="48.66514" lon="1.73327">
        <ele>149.6</ele>
        <time>2021-05-20T07:23:39Z</time>
      </trkpt>
      <trkpt lat="48.66505" lon="1.73302">
        <ele>149.8</ele>
        <time>2021-05-20T07:23:51Z</time>
      </trkpt>
      <trkpt lat="48.66496" lon="1.73276">
        <ele>150.4</ele>
        <time>2021-05-20T07:24:02Z</time>
      </trkpt>
      <trkpt lat="48.66489" lon="1.73251">
        <ele>151.2</ele>
        <time>2021-05-20T07:24:14Z</time>
      </trkpt>
      <trkpt lat="48.66478" lon="1.73228">
        <ele>152.2</ele>
        <time>2021-05-20T07:24:28Z</time>
      </trkpt>
      <trkpt lat="48.66471" lon="1.73202">
        <ele>152.6</ele>
        <time>2021-05-20T07:24:43Z</time>
      </trkpt>
      <trkpt lat="48.66461" lon="1.73179">
        <ele>153.9</ele>
        <time>2021-05-20T07:24:54Z</time>
      </trkpt>
      <trkpt lat="48.6645" lon="1.73157">
        <ele>155.6</ele>
        <time>2021-05-20T07:25:05Z</time>
      </trkpt>
      <trkpt lat="48.66442" lon="1.73132">
        <ele>156.7</ele>
        <time>2021-05-20T07:25:20Z</time>
      </trkpt>
      <trkpt lat="48.66439" lon="1.73104">
        <ele>156.5</ele>
        <time>2021-05-20T07:25:33Z</time>
      </trkpt>
      <trkpt lat="48.66429" lon="1.7308">
        <ele>157.2</ele>
        <time>2021-05-20T07:25:46Z</time>
      </trkpt>
      <trkpt lat="48.66422" lon="1.73054">
        <ele>157</ele>
        <time>2021-05-20T07:26:01Z</time>
      </trkpt>
      <trkpt lat="48.66413" lon="1.7303">
        <ele>156.5</ele>
        <time>2021-05-20T07:26:18Z</time>
      </trkpt>
      <trkpt lat="48.66406" lon="1.73004">
        <ele>155.4</ele>
        <time>2021-05-20T07:26:33Z</time>
      </trkpt>
      <trkpt lat="48.66399" lon="1.72977">
        <ele>154.7</ele>
        <time>2021-05-20T07:26:43Z</time>
      </trkpt>
      <trkpt lat="48.6639" lon="1.7295">
        <ele>154.2</ele>
        <time>2021-05-20T07:26:55Z</time>
      </trkpt>
      <trkpt lat="48.66379" lon="1.72927">
        <ele>154.1</ele>
        <time>2021-05-20T07:27:09Z</time>
      </trkpt>
      <trkpt lat="48.66372" lon="1.729">
        <ele>153.6</ele>
        <time>2021-05-20T07:27:24Z</time>
      </trkpt>
      <trkpt lat="48.66365" lon="1.72874">
        <ele>153.2</ele>
        <time>2021-05-20T07:27:39Z</time>
      </trkpt>
      <trkpt lat="48.66354" lon="1.72851">
        <ele>153.4</ele>
        <time>2021-05-20T07:27:51Z</time>
      </trkpt>
      <trkpt lat="48.66349" lon="1.72824">
        <ele>153.4</ele>
        <time>2021-05-20T07:28:04Z</time>
      </trkpt>
      <trkpt lat="48.66337" lon="1.72803">
        <ele>154.6</ele>
        <time>2021-05-20T07:28:12Z</time>
      </trkpt>
      <trkpt lat="48.66326" lon="1.72779">
        <ele>155.6</ele>
        <time>2021-05-20T07:28:22Z</time>
      </trkpt>
      <trkpt lat="48.66318" lon="1.72754">
        <ele>156.4</ele>
        <time>2021-05-20T07:28:37Z</time>
      </trkpt>
      <trkpt lat="48.66309" lon="1.72729">
        <ele>157.6</ele>
        <time>2021-05-20T07:28:50Z</time>
      </trkpt>
      <trkpt lat="48.66303" lon="1.72703">
        <ele>158.7</ele>
        <time>2021-05-20T07:29:05Z</time>
      </trkpt>
      <trkpt lat="48.66294" lon="1.72678">
        <ele>160.1</ele>
        <time>2021-05-20T07:29:19Z</time>
      </trkpt>
      <trkpt lat="48.66287" lon="1.72652">
        <ele>160.7</ele>
        <time>2021-05-20T07:29:34Z</time>
      </trkpt>
      <trkpt lat="48.6628" lon="1.72626">
        <ele>160.6</ele>
        <time>2021-05-20T07:29:55Z</time>
      </trkpt>
      <trkpt lat="48.66269" lon="1.72603">
        <ele>161</ele>
        <time>2021-05-20T07:30:07Z</time>
      </trkpt>
      <trkpt lat="48.6626" lon="1.7258">
        <ele>160.9</ele>
        <time>2021-05-20T07:30:19Z</time>
      </trkpt>
      <trkpt lat="48.66251" lon="1.72555">
        <ele>159.6</ele>
        <time>2021-05-20T07:30:33Z</time>
      </trkpt>
      <trkpt lat="48.66242" lon="1.72529">
        <ele>157.8</ele>
        <time>2021-05-20T07:30:49Z</time>
      </trkpt>
      <trkpt lat="48.66237" lon="1.72501">
        <ele>155.7</ele>
        <time>2021-05-20T07:31:06Z</time>
      </trkpt>
      <trkpt lat="48.66229" lon="1.72475">
        <ele>154</ele>
        <time>2021-05-20T07:31:17Z</time>
      </trkpt>
      <trkpt lat="48.66225" lon="1.72447">
        <ele>151.9</ele>
        <time>2021-05-20T07:31:33Z</time>
      </trkpt>
      <trkpt lat="48.66221" lon="1.7242">
        <ele>150</ele>
        <time>2021-05-20T07:31:44Z</time>
      </trkpt>
      <trkpt lat="48.66213" lon="1.72395">
        <ele>149.7</ele>
        <time>2021-05-20T07:31:56Z</time>
      </trkpt>
      <trkpt lat="48.66211" lon="1.72366">
        <ele>149.2</ele>
        <time>2021-05-20T07:32:08Z</time>
      </trkpt>
      <trkpt lat="48.66209" lon="1.72338">
        <ele>148.6</ele>
        <time>2021-05-20T07:32:22Z</time>
      </trkpt>
      <trkpt lat="48.6621" lon="1.72311">
        <ele>147.6</ele>
        <time>2021-05-20T07:32:37Z</time>
      </trkpt>
      <trkpt lat="48.66203" lon="1.72283">
        <ele>147</ele>
        <time>2021-05-20T07:32:50Z</time>
      </trkpt>
      <trkpt lat="48.66199" lon="1.72255">
        <ele>146.3</ele>
        <time>2021-05-20T07:33:03Z</time>
      </trkpt>
      <trkpt lat="48.66198" lon="1.72227">
        <ele>145.5</ele>
        <time>2021-05-20T07:33:15Z</time>
      </trkpt>
      <trkpt lat="48.66197" lon="1.72198">
        <ele>144.8</ele>
        <time>2021-05-20T07:33:26Z</time>
      </trkpt>
      <trkpt lat="48.66194" lon="1.7217">
        <ele>144.1</ele>
        <time>2021-05-20T07:33:38Z</time>
      </trkpt>
      <trkpt lat="48.66197" lon="1.72142">
        <ele>143.5</ele>
        <time>2021-05-20T07:33:49Z</time>
      </trkpt>
      <trkpt lat="48.66194" lon="1.72113">
        <ele>143.2</ele>
        <time>2021-05-20T07:34:03Z</time>
      </trkpt>
      <trkpt lat="48.66189" lon="1.72086">
        <ele>142.9</ele>
        <time>2021-05-20T07:34:13Z</time>
      </trkpt>
      <trkpt lat="48.66185" lon="1.72059">
        <ele>143.1</ele>
        <time>2021-05-20T07:34:22Z</time>
      </trkpt>
      <trkpt lat="48.66178" lon="1.72032">
        <ele>143.4</ele>
        <time>2021-05-20T07:34:33Z</time>
      </trkpt>
      <trkpt lat="48.66175" lon="1.72004">
        <ele>143.5</ele>
        <time>2021-05-20T07:34:47Z</time>
      </trkpt>
      <trkpt lat="48.66167" lon="1.71979">
        <ele>144.2</ele>
        <time>2021-05-20T07:34:58Z</time>
      </trkpt>
      <trkpt lat="48.66161" lon="1.71952">
        <ele>144.7</ele>
        <time>2021-05-20T07:35:10Z</time>
      </trkpt>
      <trkpt lat="48.66158" lon="1.71925">
        <ele>145.1</ele>
        <time>2021-05-20T07:35:23Z</time>
      </trkpt>
      <trkpt lat="48.66153" lon="1.71897">
        <ele>145.4</ele>
        <time>2021-05-20T07:35:39Z</time>
      </trkpt>
      <trkpt lat="48.66142" lon="1.71874">
        <ele>146</ele>
        <time>2021-05-20T07:35:53Z</time>
      </trkpt>
      <trkpt lat="48.66133" lon="1.71849">
        <ele>146.8</ele>
        <time>2021-05-20T07:36:08Z</time>
      </trkpt>
      <trkpt lat="48.66128" lon="1.71822">
        <ele>147</ele>
        <time>2021-05-20T07:36:23Z</time>
      </trkpt>
      <trkpt lat="48.66117" lon="1.71799">
        <ele>147.2</ele>
        <time>2021-05-20T07:36:34Z</time>
      </trkpt>
      <trkpt lat="48.6611" lon="1.71774">
        <ele>147.3</ele>
        <time>2021-05-20T07:36:45Z</time>
      </trkpt>
      <trkpt lat="48.66102" lon="1.71748">
        <ele>147.3</ele>
        <time>2021-05-20T07:36:59Z</time>
      </trkpt>
      <trkpt lat="48.66094" lon="1.71722">
        <ele>147.2</ele>
        <time>2021-05-20T07:37:14Z</time>
      </trkpt>
      <trkpt lat="48.66086" lon="1.71696">
        <ele>146.9</ele>
        <time>2021-05-20T07:37:27Z</time>
      </trkpt>
      <trkpt lat="48.66078" lon="1.7167">
        <ele>146.5</ele>
        <time>2021-05-20T07:37:41Z</time>
      </trkpt>
      <trkpt lat="48.66066" lon="1.71649">
        <ele>146.6</ele>
        <time>2021-05-20T07:37:52Z</time>
      </trkpt>
      <trkpt lat="48.66052" lon="1.71628">
        <ele>146.9</ele>
        <time>2021-05-20T07:38:02Z</time>
      </trkpt>
      <trkpt lat="48.66042" lon="1.71606">
        <ele>147</ele>
        <time>2021-05-20T07:38:14Z</time>
      </trkpt>
      <trkpt lat="48.66028" lon="1.71586">
        <ele>147.4</ele>
        <time>2021-05-20T07:38:29Z</time>
      </trkpt>
      <trkpt lat="48.66021" lon="1.71561">
        <ele>147.5</ele>
        <time>2021-05-20T07:38:44Z</time>
      </trkpt>
      <trkpt lat="48.66014" lon="1.71536">
        <ele>147.6</ele>
        <time>2021-05-20T07:39:01Z</time>
      </trkpt>
      <trkpt lat="48.66005" lon="1.71511">
        <ele>147.8</ele>
        <time>2021-05-20T07:39:18Z</time>
      </trkpt>
      <trkpt lat="48.65999" lon="1.71485">
        <ele>147.9</ele>
        <time>2021-05-20T07:39:33Z</time>
      </trkpt>
      <trkpt lat="48.65994" lon="1.71458">
        <ele>147.9</ele>
        <time>2021-05-20T07:39:45Z</time>
      </trkpt>
      <trkpt lat="48.65986" lon="1.71432">
        <ele>148</ele>
        <time>2021-05-20T07:39:58Z</time>
      </trkpt>
      <trkpt lat="48.65984" lon="1.71402">
        <ele>148</ele>
        <time>2021-05-20T07:40:10Z</time>
      </trkpt>
      <trkpt lat="48.65986" lon="1.71375">
        <ele>147.8</ele>
        <time>2021-05-20T07:40:28Z</time>
      </trkpt>
      <trkpt lat="48.6599" lon="1.71348">
        <ele>147.6</ele>
        <time>2021-05-20T07:40:44Z</time>
      </trkpt>
      <trkpt lat="48.65984" lon="1.71322">
        <ele>148</ele>
        <time>2021-05-20T07:40:56Z</time>
      </trkpt>
      <trkpt lat="48.65985" lon="1.71294">
        <ele>148.1</ele>
        <time>2021-05-20T07:41:11Z</time>
      </trkpt>
      <trkpt lat="48.65982" lon="1.71265">
        <ele>148.6</ele>
        <time>2021-05-20T07:41:21Z</time>
      </trkpt>
      <trkpt lat="48.65991" lon="1.71239">
        <ele>147.9</ele>
        <time>2021-05-20T07:41:34Z</time>
      </trkpt>
      <trkpt lat="48.6599" lon="1.71212">
        <ele>148</ele>
        <time>2021-05-20T07:41:48Z</time>
      </trkpt>
      <trkpt lat="48.65997" lon="1.71186">
        <ele>147.4</ele>
        <time>2021-05-20T07:42:04Z</time>
      </trkpt>
      <trkpt lat="48.65995" lon="1.71157">
        <ele>147.7</ele>
        <time>2021-05-20T07:42:14Z</time>
      </trkpt>
      <trkpt lat="48.66004" lon="1.71132">
        <ele>147.6</ele>
        <time>2021-05-20T07:42:28Z</time>
      </trkpt>
      <trkpt lat="48.66009" lon="1.71104">
        <ele>147.9</ele>
        <time>2021-05-20T07:42:46Z</time>
      </trkpt>
      <trkpt lat="48.66008" lon="1.71075">
        <ele>148.3</ele>
        <time>2021-05-20T07:42:58Z</time>
      </trkpt>
      <trkpt lat="48.66002" lon="1.71048">
        <ele>148.5</ele>
        <time>2021-05-20T07:43:09Z</time>
      </trkpt>
      <trkpt lat="48.66002" lon="1.7102">
        <ele>148.1</ele>
        <time>2021-05-20T07:43:22Z</time>
      </trkpt>
      <trkpt lat="48.66002" lon="1.70992">
        <ele>147.9</ele>
        <time>2021-05-20T07:43:35Z</time>
      </trkpt>
      <trkpt lat="48.65997" lon="1.70965">
        <ele>148.1</ele>
        <time>2021-05-20T07:43:52Z</time>
      </trkpt>
      <trkpt lat="48.65996" lon="1.70936">
        <ele>148.2</ele>
        <time>2021-05-20T07:44:08Z</time>
      </trkpt>
      <trkpt lat="48.65989" lon="1.70909">
        <ele>148.5</ele>
        <time>2021-05-20T07:44:19Z</time>
      </trkpt>
      <trkpt lat="48.65985" lon="1.70881">
        <ele>148.8</ele>
        <time>2021-05-20T07:44:32Z</time>
      </trkpt>
      <trkpt lat="48.65979" lon="1.70854">
        <ele>149.2</ele>
        <time>2021-05-20T07:44:47Z</time>
      </trkpt>
      <trkpt lat="48.6597" lon="1.7083">
        <ele>149.8</ele>
        <time>2021-05-20T07:44:59Z</time>
      </trkpt>
      <trkpt lat="48.65966" lon="1.70802">
        <ele>150.2</ele>
        <time>2021-05-20T07:45:12Z</time>
      </trkpt>
      <trkpt lat="48.65961" lon="1.70775">
        <ele>150.7</ele>
        <time>2021-05-20T07:45:28Z</time>
      </trkpt>
      <trkpt lat="48.65969" lon="1.70751">
        <ele>150.2</ele>
        <time>2021-05-20T07:45:44Z</time>
      </trkpt>
      <trkpt lat="48.65968" lon="1.70724">
        <ele>150.4</ele>
        <time>2021-05-20T07:45:59Z</time>
      </trkpt>
      <trkpt lat="48.65964" lon="1.70696">
        <ele>150.9</ele>
        <time>2021-05-20T07:46:11Z</time>
      </trkpt>
      <trkpt lat="48.65961" lon="1.70668">
        <ele>151.2</ele>
        <time>2021-05-20T07:46:20Z</time>
      </trkpt>
      <trkpt lat="48.65955" lon="1.70641">
        <ele>150.5</ele>
        <time>2021-05-20T07:46:38Z</time>
      </trkpt>
      <trkpt lat="48.6596" lon="1.70614">
        <ele>148.8</ele>
        <time>2021-05-20T07:49:19Z</time>
      </trkpt>
      <trkpt lat="48.65959" lon="1.70585">
        <ele>147.6</ele>
        <time>2021-05-20T07:49:35Z</time>
      </trkpt>
      <trkpt lat="48.65961" lon="1.70557">
        <ele>145.3</ele>
        <time>2021-05-20T07:49:50Z</time>
      </trkpt>
      <trkpt lat="48.65956" lon="1.70529">
        <ele>143.4</ele>
        <time>2021-05-20T07:50:03Z</time>
      </trkpt>
      <trkpt lat="48.65953" lon="1.70501">
        <ele>141.3</ele>
        <time>2021-05-20T07:50:14Z</time>
      </trkpt>
      <trkpt lat="48.65952" lon="1.70473">
        <ele>140.5</ele>
        <time>2021-05-20T07:50:26Z</time>
      </trkpt>
      <trkpt lat="48.6595" lon="1.70444">
        <ele>139.8</ele>
        <time>2021-05-20T07:50:40Z</time>
      </trkpt>
      <trkpt lat="48.65935" lon="1.70426">
        <ele>140.2</ele>
        <time>2021-05-20T07:50:50Z</time>
      </trkpt>
      <trkpt lat="48.65917" lon="1.70419">
        <ele>141.1</ele>
        <time>2021-05-20T07:51:03Z</time>
      </trkpt>
      <trkpt lat="48.65899" lon="1.70408">
        <ele>143.2</ele>
        <time>2021-05-20T07:51:21Z</time>
      </trkpt>
      <trkpt lat="48.6588" lon="1.70407">
        <ele>145.9</ele>
        <time>2021-05-20T07:51:36Z</time>
      </trkpt>
      <trkpt lat="48.65864" lon="1.7042">
        <ele>148.5</ele>
        <time>2021-05-20T07:51:49Z</time>
      </trkpt>
      <trkpt lat="48.65845" lon="1.70419">
        <ele>151.2</ele>
        <time>2021-05-20T07:52:04Z</time>
      </trkpt>
      <trkpt lat="48.65825" lon="1.70416">
        <ele>153.7</ele>
        <time>2021-05-20T07:52:21Z</time>
      </trkpt>
      <trkpt lat="48.65808" lon="1.70409">
        <ele>155.4</ele>
        <time>2021-05-20T07:52:37Z</time>
      </trkpt>
      <trkpt lat="48.65789" lon="1.70407">
        <ele>157.2</ele>
        <time>2021-05-20T07:52:54Z</time>
      </trkpt>
      <trkpt lat="48.6577" lon="1.70406">
        <ele>159.1</ele>
        <time>2021-05-20T07:53:08Z</time>
      </trkpt>
      <trkpt lat="48.65752" lon="1.70401">
        <ele>160.9</ele>
        <time>2021-05-20T07:53:22Z</time>
      </trkpt>
      <trkpt lat="48.65735" lon="1.70389">
        <ele>161.7</ele>
        <time>2021-05-20T07:53:39Z</time>
      </trkpt>
      <trkpt lat="48.65722" lon="1.70371">
        <ele>162.4</ele>
        <time>2021-05-20T07:53:58Z</time>
      </trkpt>
      <trkpt lat="48.65708" lon="1.70352">
        <ele>163.2</ele>
        <time>2021-05-20T07:54:15Z</time>
      </trkpt>
      <trkpt lat="48.65722" lon="1.70371">
        <ele>162.4</ele>
        <time>2021-05-20T07:54:41Z</time>
      </trkpt>
      <trkpt lat="48.65713" lon="1.70396">
        <ele>162.3</ele>
        <time>2021-05-20T07:55:01Z</time>
      </trkpt>
      <trkpt lat="48.65695" lon="1.70405">
        <ele>162.6</ele>
        <time>2021-05-20T07:55:20Z</time>
      </trkpt>
      <trkpt lat="48.65678" lon="1.70417">
        <ele>162.7</ele>
        <time>2021-05-20T07:55:36Z</time>
      </trkpt>
      <trkpt lat="48.65662" lon="1.70428">
        <ele>162.8</ele>
        <time>2021-05-20T07:55:57Z</time>
      </trkpt>
      <trkpt lat="48.65647" lon="1.70443">
        <ele>162.8</ele>
        <time>2021-05-20T07:56:11Z</time>
      </trkpt>
      <trkpt lat="48.65631" lon="1.70457">
        <ele>163.1</ele>
        <time>2021-05-20T07:56:24Z</time>
      </trkpt>
      <trkpt lat="48.65615" lon="1.70471">
        <ele>163.5</ele>
        <time>2021-05-20T07:56:37Z</time>
      </trkpt>
      <trkpt lat="48.65599" lon="1.70482">
        <ele>164.2</ele>
        <time>2021-05-20T07:56:52Z</time>
      </trkpt>
      <trkpt lat="48.65581" lon="1.70492">
        <ele>164.9</ele>
        <time>2021-05-20T07:57:06Z</time>
      </trkpt>
      <trkpt lat="48.65564" lon="1.70504">
        <ele>165.2</ele>
        <time>2021-05-20T07:57:20Z</time>
      </trkpt>
      <trkpt lat="48.65547" lon="1.70514">
        <ele>165.3</ele>
        <time>2021-05-20T07:57:35Z</time>
      </trkpt>
      <trkpt lat="48.65541" lon="1.7054">
        <ele>165.3</ele>
        <time>2021-05-20T07:58:02Z</time>
      </trkpt>
      <trkpt lat="48.65546" lon="1.70566">
        <ele>165</ele>
        <time>2021-05-20T07:58:19Z</time>
      </trkpt>
      <trkpt lat="48.65548" lon="1.70595">
        <ele>164.9</ele>
        <time>2021-05-20T07:58:36Z</time>
      </trkpt>
      <trkpt lat="48.65546" lon="1.70623">
        <ele>165</ele>
        <time>2021-05-20T07:58:51Z</time>
      </trkpt>
      <trkpt lat="48.65544" lon="1.70651">
        <ele>165</ele>
        <time>2021-05-20T07:59:04Z</time>
      </trkpt>
      <trkpt lat="48.65531" lon="1.7067">
        <ele>164.9</ele>
        <time>2021-05-20T07:59:20Z</time>
      </trkpt>
      <trkpt lat="48.6552" lon="1.70693">
        <ele>164.4</ele>
        <time>2021-05-20T07:59:42Z</time>
      </trkpt>
      <trkpt lat="48.6551" lon="1.70716">
        <ele>163.9</ele>
        <time>2021-05-20T07:59:55Z</time>
      </trkpt>
      <trkpt lat="48.65493" lon="1.70729">
        <ele>163.5</ele>
        <time>2021-05-20T08:00:10Z</time>
      </trkpt>
      <trkpt lat="48.65475" lon="1.70731">
        <ele>163.6</ele>
        <time>2021-05-20T08:00:23Z</time>
      </trkpt>
      <trkpt lat="48.65456" lon="1.70731">
        <ele>163.7</ele>
        <time>2021-05-20T08:00:36Z</time>
      </trkpt>
      <trkpt lat="48.65438" lon="1.70731">
        <ele>163.9</ele>
        <time>2021-05-20T08:00:49Z</time>
      </trkpt>
      <trkpt lat="48.65419" lon="1.70733">
        <ele>164</ele>
        <time>2021-05-20T08:01:02Z</time>
      </trkpt>
      <trkpt lat="48.654" lon="1.70735">
        <ele>163.8</ele>
        <time>2021-05-20T08:01:15Z</time>
      </trkpt>
      <trkpt lat="48.65382" lon="1.70736">
        <ele>163.7</ele>
        <time>2021-05-20T08:01:28Z</time>
      </trkpt>
      <trkpt lat="48.65365" lon="1.70746">
        <ele>163.4</ele>
        <time>2021-05-20T08:01:41Z</time>
      </trkpt>
      <trkpt lat="48.65363" lon="1.70774">
        <ele>163.6</ele>
        <time>2021-05-20T08:01:55Z</time>
      </trkpt>
      <trkpt lat="48.65359" lon="1.70801">
        <ele>163.9</ele>
        <time>2021-05-20T08:02:13Z</time>
      </trkpt>
      <trkpt lat="48.65358" lon="1.70829">
        <ele>164.2</ele>
        <time>2021-05-20T08:02:25Z</time>
      </trkpt>
      <trkpt lat="48.65355" lon="1.70857">
        <ele>163.6</ele>
        <time>2021-05-20T08:02:38Z</time>
      </trkpt>
      <trkpt lat="48.65353" lon="1.70885">
        <ele>162.9</ele>
        <time>2021-05-20T08:02:51Z</time>
      </trkpt>
      <trkpt lat="48.65352" lon="1.70913">
        <ele>162.1</ele>
        <time>2021-05-20T08:03:04Z</time>
      </trkpt>
      <trkpt lat="48.65348" lon="1.70941">
        <ele>162.2</ele>
        <time>2021-05-20T08:03:19Z</time>
      </trkpt>
      <trkpt lat="48.65346" lon="1.70969">
        <ele>162.5</ele>
        <time>2021-05-20T08:03:37Z</time>
      </trkpt>
      <trkpt lat="48.65341" lon="1.70995">
        <ele>162.9</ele>
        <time>2021-05-20T08:03:51Z</time>
      </trkpt>
      <trkpt lat="48.65335" lon="1.71021">
        <ele>163.7</ele>
        <time>2021-05-20T08:04:04Z</time>
      </trkpt>
      <trkpt lat="48.65328" lon="1.71048">
        <ele>164.7</ele>
        <time>2021-05-20T08:04:18Z</time>
      </trkpt>
      <trkpt lat="48.65319" lon="1.71072">
        <ele>165.3</ele>
        <time>2021-05-20T08:04:34Z</time>
      </trkpt>
      <trkpt lat="48.6531" lon="1.71097">
        <ele>165.4</ele>
        <time>2021-05-20T08:04:50Z</time>
      </trkpt>
      <trkpt lat="48.65303" lon="1.71122">
        <ele>165.1</ele>
        <time>2021-05-20T08:05:04Z</time>
      </trkpt>
      <trkpt lat="48.65295" lon="1.71148">
        <ele>165</ele>
        <time>2021-05-20T08:05:17Z</time>
      </trkpt>
      <trkpt lat="48.65286" lon="1.71173">
        <ele>164.9</ele>
        <time>2021-05-20T08:05:29Z</time>
      </trkpt>
      <trkpt lat="48.65277" lon="1.71198">
        <ele>164.6</ele>
        <time>2021-05-20T08:05:41Z</time>
      </trkpt>
      <trkpt lat="48.6527" lon="1.71223">
        <ele>164.3</ele>
        <time>2021-05-20T08:05:55Z</time>
      </trkpt>
      <trkpt lat="48.65273" lon="1.7125">
        <ele>164</ele>
        <time>2021-05-20T08:06:12Z</time>
      </trkpt>
      <trkpt lat="48.65284" lon="1.71271">
        <ele>164.2</ele>
        <time>2021-05-20T08:06:25Z</time>
      </trkpt>
      <trkpt lat="48.65296" lon="1.71293">
        <ele>164.6</ele>
        <time>2021-05-20T08:06:39Z</time>
      </trkpt>
      <trkpt lat="48.65309" lon="1.71314">
        <ele>165.1</ele>
        <time>2021-05-20T08:06:53Z</time>
      </trkpt>
      <trkpt lat="48.6532" lon="1.71339">
        <ele>165.8</ele>
        <time>2021-05-20T08:07:05Z</time>
      </trkpt>
      <trkpt lat="48.65331" lon="1.71362">
        <ele>166.3</ele>
        <time>2021-05-20T08:07:19Z</time>
      </trkpt>
      <trkpt lat="48.65341" lon="1.71386">
        <ele>166.9</ele>
        <time>2021-05-20T08:07:32Z</time>
      </trkpt>
      <trkpt lat="48.65353" lon="1.71408">
        <ele>167.6</ele>
        <time>2021-05-20T08:07:46Z</time>
      </trkpt>
      <trkpt lat="48.65365" lon="1.71431">
        <ele>168.3</ele>
        <time>2021-05-20T08:08:01Z</time>
      </trkpt>
      <trkpt lat="48.65375" lon="1.71455">
        <ele>169</ele>
        <time>2021-05-20T08:08:14Z</time>
      </trkpt>
      <trkpt lat="48.65381" lon="1.71481">
        <ele>169.4</ele>
        <time>2021-05-20T08:08:29Z</time>
      </trkpt>
      <trkpt lat="48.65387" lon="1.71508">
        <ele>169.5</ele>
        <time>2021-05-20T08:08:42Z</time>
      </trkpt>
      <trkpt lat="48.65397" lon="1.71534">
        <ele>169.1</ele>
        <time>2021-05-20T08:08:54Z</time>
      </trkpt>
      <trkpt lat="48.6541" lon="1.71554">
        <ele>168.7</ele>
        <time>2021-05-20T08:09:07Z</time>
      </trkpt>
      <trkpt lat="48.6542" lon="1.71579">
        <ele>168.1</ele>
        <time>2021-05-20T08:09:20Z</time>
      </trkpt>
      <trkpt lat="48.6543" lon="1.71603">
        <ele>168.5</ele>
        <time>2021-05-20T08:09:35Z</time>
      </trkpt>
      <trkpt lat="48.65444" lon="1.71623">
        <ele>169.1</ele>
        <time>2021-05-20T08:09:54Z</time>
      </trkpt>
      <trkpt lat="48.65455" lon="1.71645">
        <ele>169.9</ele>
        <time>2021-05-20T08:10:08Z</time>
      </trkpt>
      <trkpt lat="48.65469" lon="1.71664">
        <ele>170.8</ele>
        <time>2021-05-20T08:10:23Z</time>
      </trkpt>
      <trkpt lat="48.65482" lon="1.71685">
        <ele>171.3</ele>
        <time>2021-05-20T08:10:36Z</time>
      </trkpt>
      <trkpt lat="48.65495" lon="1.71704">
        <ele>171.8</ele>
        <time>2021-05-20T08:10:49Z</time>
      </trkpt>
      <trkpt lat="48.65507" lon="1.71729">
        <ele>172.3</ele>
        <time>2021-05-20T08:11:04Z</time>
      </trkpt>
      <trkpt lat="48.65517" lon="1.71752">
        <ele>173</ele>
        <time>2021-05-20T08:11:16Z</time>
      </trkpt>
      <trkpt lat="48.6553" lon="1.71771">
        <ele>173.6</ele>
        <time>2021-05-20T08:11:27Z</time>
      </trkpt>
      <trkpt lat="48.65542" lon="1.71793">
        <ele>174.3</ele>
        <time>2021-05-20T08:11:43Z</time>
      </trkpt>
      <trkpt lat="48.65555" lon="1.71812">
        <ele>175.3</ele>
        <time>2021-05-20T08:11:57Z</time>
      </trkpt>
      <trkpt lat="48.65569" lon="1.71832">
        <ele>176.6</ele>
        <time>2021-05-20T08:12:14Z</time>
      </trkpt>
      <trkpt lat="48.65585" lon="1.71845">
        <ele>177.7</ele>
        <time>2021-05-20T08:12:31Z</time>
      </trkpt>
      <trkpt lat="48.65598" lon="1.71863">
        <ele>177.5</ele>
        <time>2021-05-20T08:13:01Z</time>
      </trkpt>
      <trkpt lat="48.65616" lon="1.71866">
        <ele>177.8</ele>
        <time>2021-05-20T08:15:45Z</time>
      </trkpt>
      <trkpt lat="48.65632" lon="1.71882">
        <ele>178.2</ele>
        <time>2021-05-20T08:16:01Z</time>
      </trkpt>
      <trkpt lat="48.65649" lon="1.71894">
        <ele>178.8</ele>
        <time>2021-05-20T08:16:18Z</time>
      </trkpt>
      <trkpt lat="48.65667" lon="1.71899">
        <ele>179.5</ele>
        <time>2021-05-20T08:16:31Z</time>
      </trkpt>
      <trkpt lat="48.65685" lon="1.71913">
        <ele>178.2</ele>
        <time>2021-05-20T08:16:49Z</time>
      </trkpt>
      <trkpt lat="48.65703" lon="1.71908">
        <ele>176.3</ele>
        <time>2021-05-20T08:17:15Z</time>
      </trkpt>
      <trkpt lat="48.6572" lon="1.719">
        <ele>174.3</ele>
        <time>2021-05-20T08:17:28Z</time>
      </trkpt>
      <trkpt lat="48.65738" lon="1.71893">
        <ele>172.3</ele>
        <time>2021-05-20T08:17:45Z</time>
      </trkpt>
      <trkpt lat="48.65756" lon="1.71884">
        <ele>170.3</ele>
        <time>2021-05-20T08:18:01Z</time>
      </trkpt>
      <trkpt lat="48.65774" lon="1.71875">
        <ele>168.3</ele>
        <time>2021-05-20T08:18:19Z</time>
      </trkpt>
      <trkpt lat="48.65792" lon="1.71869">
        <ele>166.7</ele>
        <time>2021-05-20T08:18:35Z</time>
      </trkpt>
      <trkpt lat="48.65811" lon="1.71867">
        <ele>165.1</ele>
        <time>2021-05-20T08:18:51Z</time>
      </trkpt>
      <trkpt lat="48.65829" lon="1.71867">
        <ele>163.5</ele>
        <time>2021-05-20T08:19:05Z</time>
      </trkpt>
      <trkpt lat="48.65848" lon="1.71867">
        <ele>162.3</ele>
        <time>2021-05-20T08:19:21Z</time>
      </trkpt>
      <trkpt lat="48.65867" lon="1.71861">
        <ele>161.5</ele>
        <time>2021-05-20T08:19:33Z</time>
      </trkpt>
      <trkpt lat="48.65885" lon="1.71855">
        <ele>160.7</ele>
        <time>2021-05-20T08:19:45Z</time>
      </trkpt>
      <trkpt lat="48.65903" lon="1.7185">
        <ele>159.9</ele>
        <time>2021-05-20T08:19:58Z</time>
      </trkpt>
      <trkpt lat="48.65908" lon="1.71877">
        <ele>158.5</ele>
        <time>2021-05-20T08:20:27Z</time>
      </trkpt>
      <trkpt lat="48.65901" lon="1.71904">
        <ele>157.7</ele>
        <time>2021-05-20T08:20:43Z</time>
      </trkpt>
      <trkpt lat="48.65894" lon="1.7193">
        <ele>157.6</ele>
        <time>2021-05-20T08:20:58Z</time>
      </trkpt>
      <trkpt lat="48.65887" lon="1.71954">
        <ele>158</ele>
        <time>2021-05-20T08:21:16Z</time>
      </trkpt>
      <trkpt lat="48.65882" lon="1.71982">
        <ele>158.2</ele>
        <time>2021-05-20T08:21:32Z</time>
      </trkpt>
      <trkpt lat="48.65869" lon="1.72004">
        <ele>158.8</ele>
        <time>2021-05-20T08:21:47Z</time>
      </trkpt>
      <trkpt lat="48.65866" lon="1.72034">
        <ele>158.5</ele>
        <time>2021-05-20T08:21:59Z</time>
      </trkpt>
      <trkpt lat="48.65862" lon="1.72061">
        <ele>158.3</ele>
        <time>2021-05-20T08:22:10Z</time>
      </trkpt>
      <trkpt lat="48.65856" lon="1.72087">
        <ele>158.3</ele>
        <time>2021-05-20T08:22:25Z</time>
      </trkpt>
      <trkpt lat="48.65854" lon="1.72115">
        <ele>159.3</ele>
        <time>2021-05-20T08:22:43Z</time>
      </trkpt>
      <trkpt lat="48.65849" lon="1.72143">
        <ele>160.4</ele>
        <time>2021-05-20T08:23:01Z</time>
      </trkpt>
      <trkpt lat="48.65843" lon="1.72169">
        <ele>161.7</ele>
        <time>2021-05-20T08:23:23Z</time>
      </trkpt>
      <trkpt lat="48.65837" lon="1.72195">
        <ele>163.8</ele>
        <time>2021-05-20T08:23:43Z</time>
      </trkpt>
      <trkpt lat="48.65831" lon="1.72221">
        <ele>166</ele>
        <time>2021-05-20T08:24:03Z</time>
      </trkpt>
      <trkpt lat="48.65823" lon="1.72246">
        <ele>168</ele>
        <time>2021-05-20T08:24:22Z</time>
      </trkpt>
      <trkpt lat="48.65816" lon="1.72272">
        <ele>169.4</ele>
        <time>2021-05-20T08:24:40Z</time>
      </trkpt>
      <trkpt lat="48.6581" lon="1.72298">
        <ele>170.8</ele>
        <time>2021-05-20T08:24:57Z</time>
      </trkpt>
      <trkpt lat="48.65802" lon="1.72323">
        <ele>172.4</ele>
        <time>2021-05-20T08:25:13Z</time>
      </trkpt>
      <trkpt lat="48.65794" lon="1.72348">
        <ele>173.7</ele>
        <time>2021-05-20T08:25:26Z</time>
      </trkpt>
      <trkpt lat="48.65789" lon="1.72375">
        <ele>174.7</ele>
        <time>2021-05-20T08:25:39Z</time>
      </trkpt>
      <trkpt lat="48.65782" lon="1.72402">
        <ele>175.7</ele>
        <time>2021-05-20T08:25:55Z</time>
      </trkpt>
      <trkpt lat="48.65775" lon="1.72428">
        <ele>176.9</ele>
        <time>2021-05-20T08:26:17Z</time>
      </trkpt>
      <trkpt lat="48.65767" lon="1.72454">
        <ele>178.2</ele>
        <time>2021-05-20T08:26:32Z</time>
      </trkpt>
      <trkpt lat="48.65762" lon="1.72482">
        <ele>179.2</ele>
        <time>2021-05-20T08:26:45Z</time>
      </trkpt>
      <trkpt lat="48.65757" lon="1.7251">
        <ele>179.6</ele>
        <time>2021-05-20T08:26:58Z</time>
      </trkpt>
      <trkpt lat="48.6575" lon="1.72537">
        <ele>179.1</ele>
        <time>2021-05-20T08:27:11Z</time>
      </trkpt>
      <trkpt lat="48.65742" lon="1.72563">
        <ele>178.2</ele>
        <time>2021-05-20T08:27:23Z</time>
      </trkpt>
      <trkpt lat="48.65735" lon="1.72588">
        <ele>177.7</ele>
        <time>2021-05-20T08:27:36Z</time>
      </trkpt>
      <trkpt lat="48.6573" lon="1.72615">
        <ele>178</ele>
        <time>2021-05-20T08:27:50Z</time>
      </trkpt>
      <trkpt lat="48.65727" lon="1.72642">
        <ele>178.3</ele>
        <time>2021-05-20T08:28:12Z</time>
      </trkpt>
      <trkpt lat="48.65724" lon="1.72671">
        <ele>178.7</ele>
        <time>2021-05-20T08:28:27Z</time>
      </trkpt>
      <trkpt lat="48.65716" lon="1.72696">
        <ele>178.4</ele>
        <time>2021-05-20T08:28:49Z</time>
      </trkpt>
      <trkpt lat="48.65711" lon="1.72723">
        <ele>178.2</ele>
        <time>2021-05-20T08:29:03Z</time>
      </trkpt>
      <trkpt lat="48.65702" lon="1.72748">
        <ele>178</ele>
        <time>2021-05-20T08:29:16Z</time>
      </trkpt>
      <trkpt lat="48.65695" lon="1.72775">
        <ele>178</ele>
        <time>2021-05-20T08:29:29Z</time>
      </trkpt>
      <trkpt lat="48.6569" lon="1.72802">
        <ele>178</ele>
        <time>2021-05-20T08:29:44Z</time>
      </trkpt>
      <trkpt lat="48.65688" lon="1.72829">
        <ele>178</ele>
        <time>2021-05-20T08:30:05Z</time>
      </trkpt>
      <trkpt lat="48.65699" lon="1.72851">
        <ele>178</ele>
        <time>2021-05-20T08:31:08Z</time>
      </trkpt>
      <trkpt lat="48.65716" lon="1.72866">
        <ele>178</ele>
        <time>2021-05-20T08:31:26Z</time>
      </trkpt>
      <trkpt lat="48.65731" lon="1.72884">
        <ele>178</ele>
        <time>2021-05-20T08:31:52Z</time>
      </trkpt>
      <trkpt lat="48.65746" lon="1.72901">
        <ele>178</ele>
        <time>2021-05-20T08:32:06Z</time>
      </trkpt>
      <trkpt lat="48.6576" lon="1.72919">
        <ele>178</ele>
        <time>2021-05-20T08:32:27Z</time>
      </trkpt>
      <trkpt lat="48.65771" lon="1.72941">
        <ele>177.9</ele>
        <time>2021-05-20T08:32:42Z</time>
      </trkpt>
      <trkpt lat="48.65785" lon="1.72958">
        <ele>177.9</ele>
        <time>2021-05-20T08:32:57Z</time>
      </trkpt>
      <trkpt lat="48.65792" lon="1.72984">
        <ele>178</ele>
        <time>2021-05-20T08:33:16Z</time>
      </trkpt>
      <trkpt lat="48.658" lon="1.73009">
        <ele>177.9</ele>
        <time>2021-05-20T08:33:34Z</time>
      </trkpt>
      <trkpt lat="48.65815" lon="1.73025">
        <ele>177.5</ele>
        <time>2021-05-20T08:33:45Z</time>
      </trkpt>
      <trkpt lat="48.65831" lon="1.73041">
        <ele>177</ele>
        <time>2021-05-20T08:33:54Z</time>
      </trkpt>
      <trkpt lat="48.65844" lon="1.73061">
        <ele>175.7</ele>
        <time>2021-05-20T08:34:04Z</time>
      </trkpt>
      <trkpt lat="48.65855" lon="1.73082">
        <ele>174.3</ele>
        <time>2021-05-20T08:34:16Z</time>
      </trkpt>
      <trkpt lat="48.65861" lon="1.73109">
        <ele>173.7</ele>
        <time>2021-05-20T08:34:32Z</time>
      </trkpt>
      <trkpt lat="48.65874" lon="1.73128">
        <ele>173.2</ele>
        <time>2021-05-20T08:34:48Z</time>
      </trkpt>
      <trkpt lat="48.65879" lon="1.73154">
        <ele>173</ele>
        <time>2021-05-20T08:35:04Z</time>
      </trkpt>
      <trkpt lat="48.65889" lon="1.73178">
        <ele>173</ele>
        <time>2021-05-20T08:35:16Z</time>
      </trkpt>
      <trkpt lat="48.65893" lon="1.73205">
        <ele>172.9</ele>
        <time>2021-05-20T08:35:32Z</time>
      </trkpt>
      <trkpt lat="48.65899" lon="1.73232">
        <ele>172.8</ele>
        <time>2021-05-20T08:35:49Z</time>
      </trkpt>
      <trkpt lat="48.65903" lon="1.73258">
        <ele>172.7</ele>
        <time>2021-05-20T08:36:02Z</time>
      </trkpt>
      <trkpt lat="48.65913" lon="1.73284">
        <ele>172.6</ele>
        <time>2021-05-20T08:36:13Z</time>
      </trkpt>
      <trkpt lat="48.65923" lon="1.73309">
        <ele>172.3</ele>
        <time>2021-05-20T08:36:25Z</time>
      </trkpt>
      <trkpt lat="48.65924" lon="1.73336">
        <ele>172</ele>
        <time>2021-05-20T08:36:39Z</time>
      </trkpt>
      <trkpt lat="48.65935" lon="1.73361">
        <ele>171.8</ele>
        <time>2021-05-20T08:36:52Z</time>
      </trkpt>
      <trkpt lat="48.65946" lon="1.73383">
        <ele>171.8</ele>
        <time>2021-05-20T08:37:06Z</time>
      </trkpt>
      <trkpt lat="48.6595" lon="1.7341">
        <ele>171.8</ele>
        <time>2021-05-20T08:37:23Z</time>
      </trkpt>
      <trkpt lat="48.65964" lon="1.7343">
        <ele>172.2</ele>
        <time>2021-05-20T08:37:41Z</time>
      </trkpt>
      <trkpt lat="48.65971" lon="1.73457">
        <ele>172.3</ele>
        <time>2021-05-20T08:38:01Z</time>
      </trkpt>
      <trkpt lat="48.65986" lon="1.73472">
        <ele>172.3</ele>
        <time>2021-05-20T08:38:12Z</time>
      </trkpt>
      <trkpt lat="48.65999" lon="1.73494">
        <ele>172.1</ele>
        <time>2021-05-20T08:38:24Z</time>
      </trkpt>
      <trkpt lat="48.66012" lon="1.73515">
        <ele>171.9</ele>
        <time>2021-05-20T08:38:40Z</time>
      </trkpt>
      <trkpt lat="48.66027" lon="1.73532">
        <ele>172</ele>
        <time>2021-05-20T08:39:43Z</time>
      </trkpt>
      <trkpt lat="48.66035" lon="1.73557">
        <ele>172.2</ele>
        <time>2021-05-20T08:40:35Z</time>
      </trkpt>
      <trkpt lat="48.66039" lon="1.73584">
        <ele>172.4</ele>
        <time>2021-05-20T08:40:54Z</time>
      </trkpt>
      <trkpt lat="48.66035" lon="1.73612">
        <ele>173</ele>
        <time>2021-05-20T08:41:11Z</time>
      </trkpt>
      <trkpt lat="48.66031" lon="1.7364">
        <ele>173.8</ele>
        <time>2021-05-20T08:41:29Z</time>
      </trkpt>
      <trkpt lat="48.66025" lon="1.73667">
        <ele>174.6</ele>
        <time>2021-05-20T08:41:44Z</time>
      </trkpt>
      <trkpt lat="48.66012" lon="1.73687">
        <ele>174.7</ele>
        <time>2021-05-20T08:41:56Z</time>
      </trkpt>
      <trkpt lat="48.65999" lon="1.73708">
        <ele>175</ele>
        <time>2021-05-20T08:42:13Z</time>
      </trkpt>
      <trkpt lat="48.65981" lon="1.73715">
        <ele>175.5</ele>
        <time>2021-05-20T08:42:27Z</time>
      </trkpt>
      <trkpt lat="48.65963" lon="1.73716">
        <ele>175.8</ele>
        <time>2021-05-20T08:42:40Z</time>
      </trkpt>
      <trkpt lat="48.65944" lon="1.73721">
        <ele>176.2</ele>
        <time>2021-05-20T08:42:53Z</time>
      </trkpt>
      <trkpt lat="48.65926" lon="1.73726">
        <ele>176.6</ele>
        <time>2021-05-20T08:43:08Z</time>
      </trkpt>
      <trkpt lat="48.65908" lon="1.73732">
        <ele>176.6</ele>
        <time>2021-05-20T08:43:21Z</time>
      </trkpt>
      <trkpt lat="48.6589" lon="1.73726">
        <ele>176.2</ele>
        <time>2021-05-20T08:43:55Z</time>
      </trkpt>
      <trkpt lat="48.65875" lon="1.73744">
        <ele>176</ele>
        <time>2021-05-20T08:44:57Z</time>
      </trkpt>
      <trkpt lat="48.65861" lon="1.73762">
        <ele>175</ele>
        <time>2021-05-20T08:45:13Z</time>
      </trkpt>
      <trkpt lat="48.65843" lon="1.73761">
        <ele>174.5</ele>
        <time>2021-05-20T08:45:46Z</time>
      </trkpt>
      <trkpt lat="48.65827" lon="1.73776">
        <ele>173.2</ele>
        <time>2021-05-20T08:46:09Z</time>
      </trkpt>
      <trkpt lat="48.65814" lon="1.73795">
        <ele>172.3</ele>
        <time>2021-05-20T08:46:37Z</time>
      </trkpt>
      <trkpt lat="48.65799" lon="1.73811">
        <ele>172</ele>
        <time>2021-05-20T08:47:05Z</time>
      </trkpt>
      <trkpt lat="48.65785" lon="1.73831">
        <ele>172</ele>
        <time>2021-05-20T08:47:23Z</time>
      </trkpt>
      <trkpt lat="48.65769" lon="1.73844">
        <ele>172.6</ele>
        <time>2021-05-20T08:47:48Z</time>
      </trkpt>
      <trkpt lat="48.65756" lon="1.73867">
        <ele>172.8</ele>
        <time>2021-05-20T08:48:02Z</time>
      </trkpt>
      <trkpt lat="48.65748" lon="1.73891">
        <ele>172.7</ele>
        <time>2021-05-20T08:48:17Z</time>
      </trkpt>
      <trkpt lat="48.65735" lon="1.73912">
        <ele>172.8</ele>
        <time>2021-05-20T08:48:36Z</time>
      </trkpt>
      <trkpt lat="48.65735" lon="1.7394">
        <ele>172.5</ele>
        <time>2021-05-20T08:49:26Z</time>
      </trkpt>
      <trkpt lat="48.65718" lon="1.73927">
        <ele>173.4</ele>
        <time>2021-05-20T08:50:01Z</time>
      </trkpt>
      <trkpt lat="48.65701" lon="1.73915">
        <ele>174.3</ele>
        <time>2021-05-20T08:50:21Z</time>
      </trkpt>
      <trkpt lat="48.65686" lon="1.73898">
        <ele>175</ele>
        <time>2021-05-20T08:50:41Z</time>
      </trkpt>
      <trkpt lat="48.65671" lon="1.73882">
        <ele>175.4</ele>
        <time>2021-05-20T08:50:59Z</time>
      </trkpt>
      <trkpt lat="48.65655" lon="1.73866">
        <ele>175.2</ele>
        <time>2021-05-20T08:51:15Z</time>
      </trkpt>
      <trkpt lat="48.6564" lon="1.73851">
        <ele>174.9</ele>
        <time>2021-05-20T08:51:29Z</time>
      </trkpt>
      <trkpt lat="48.65626" lon="1.7383">
        <ele>174.5</ele>
        <time>2021-05-20T08:51:43Z</time>
      </trkpt>
      <trkpt lat="48.65614" lon="1.73809">
        <ele>174.3</ele>
        <time>2021-05-20T08:51:58Z</time>
      </trkpt>
      <trkpt lat="48.65597" lon="1.73797">
        <ele>174.1</ele>
        <time>2021-05-20T08:52:14Z</time>
      </trkpt>
      <trkpt lat="48.65583" lon="1.73779">
        <ele>174</ele>
        <time>2021-05-20T08:52:33Z</time>
      </trkpt>
      <trkpt lat="48.65566" lon="1.73766">
        <ele>174.7</ele>
        <time>2021-05-20T08:52:50Z</time>
      </trkpt>
      <trkpt lat="48.65554" lon="1.73745">
        <ele>175.4</ele>
        <time>2021-05-20T08:53:05Z</time>
      </trkpt>
      <trkpt lat="48.65555" lon="1.73717">
        <ele>175.2</ele>
        <time>2021-05-20T08:53:18Z</time>
      </trkpt>
      <trkpt lat="48.65546" lon="1.73691">
        <ele>175.5</ele>
        <time>2021-05-20T08:53:33Z</time>
      </trkpt>
      <trkpt lat="48.65531" lon="1.73672">
        <ele>175.9</ele>
        <time>2021-05-20T08:53:44Z</time>
      </trkpt>
      <trkpt lat="48.65516" lon="1.73657">
        <ele>176.4</ele>
        <time>2021-05-20T08:54:03Z</time>
      </trkpt>
      <trkpt lat="48.65498" lon="1.73645">
        <ele>177</ele>
        <time>2021-05-20T08:54:20Z</time>
      </trkpt>
      <trkpt lat="48.6548" lon="1.73642">
        <ele>177.5</ele>
        <time>2021-05-20T08:54:38Z</time>
      </trkpt>
      <trkpt lat="48.65466" lon="1.73622">
        <ele>177.8</ele>
        <time>2021-05-20T08:54:55Z</time>
      </trkpt>
      <trkpt lat="48.65448" lon="1.73624">
        <ele>178.3</ele>
        <time>2021-05-20T08:55:31Z</time>
      </trkpt>
      <trkpt lat="48.65431" lon="1.73634">
        <ele>178.7</ele>
        <time>2021-05-20T08:55:55Z</time>
      </trkpt>
      <trkpt lat="48.65415" lon="1.73651">
        <ele>179</ele>
        <time>2021-05-20T08:56:19Z</time>
      </trkpt>
      <trkpt lat="48.65402" lon="1.73672">
        <ele>178.8</ele>
        <time>2021-05-20T08:56:32Z</time>
      </trkpt>
      <trkpt lat="48.6539" lon="1.73693">
        <ele>178.7</ele>
        <time>2021-05-20T08:56:45Z</time>
      </trkpt>
      <trkpt lat="48.65378" lon="1.73715">
        <ele>178.5</ele>
        <time>2021-05-20T08:57:01Z</time>
      </trkpt>
      <trkpt lat="48.65368" lon="1.73738">
        <ele>178.4</ele>
        <time>2021-05-20T08:57:13Z</time>
      </trkpt>
      <trkpt lat="48.65358" lon="1.73761">
        <ele>178.2</ele>
        <time>2021-05-20T08:57:31Z</time>
      </trkpt>
      <trkpt lat="48.65348" lon="1.73784">
        <ele>177.8</ele>
        <time>2021-05-20T08:57:49Z</time>
      </trkpt>
      <trkpt lat="48.65336" lon="1.73805">
        <ele>177.4</ele>
        <time>2021-05-20T08:58:16Z</time>
      </trkpt>
      <trkpt lat="48.65327" lon="1.73829">
        <ele>177.1</ele>
        <time>2021-05-20T08:58:37Z</time>
      </trkpt>
      <trkpt lat="48.6531" lon="1.73839">
        <ele>177.2</ele>
        <time>2021-05-20T08:59:00Z</time>
      </trkpt>
      <trkpt lat="48.65295" lon="1.73855">
        <ele>177.2</ele>
        <time>2021-05-20T08:59:24Z</time>
      </trkpt>
      <trkpt lat="48.65285" lon="1.73878">
        <ele>177</ele>
        <time>2021-05-20T09:00:02Z</time>
      </trkpt>
      <trkpt lat="48.65268" lon="1.73889">
        <ele>176.7</ele>
        <time>2021-05-20T09:01:09Z</time>
      </trkpt>
      <trkpt lat="48.65254" lon="1.73906">
        <ele>176.3</ele>
        <time>2021-05-20T09:01:46Z</time>
      </trkpt>
      <trkpt lat="48.6524" lon="1.73924">
        <ele>175.9</ele>
        <time>2021-05-20T09:02:06Z</time>
      </trkpt>
      <trkpt lat="48.65234" lon="1.7395">
        <ele>175.7</ele>
        <time>2021-05-20T09:02:22Z</time>
      </trkpt>
      <trkpt lat="48.65221" lon="1.73972">
        <ele>175.4</ele>
        <time>2021-05-20T09:02:40Z</time>
      </trkpt>
      <trkpt lat="48.65212" lon="1.73996">
        <ele>175.1</ele>
        <time>2021-05-20T09:02:54Z</time>
      </trkpt>
      <trkpt lat="48.65202" lon="1.7402">
        <ele>174.1</ele>
        <time>2021-05-20T09:03:14Z</time>
      </trkpt>
      <trkpt lat="48.65206" lon="1.74048">
        <ele>173.2</ele>
        <time>2021-05-20T09:04:04Z</time>
      </trkpt>
      <trkpt lat="48.6522" lon="1.74066">
        <ele>172.9</ele>
        <time>2021-05-20T09:04:21Z</time>
      </trkpt>
      <trkpt lat="48.65235" lon="1.74084">
        <ele>172.6</ele>
        <time>2021-05-20T09:04:33Z</time>
      </trkpt>
      <trkpt lat="48.65248" lon="1.74104">
        <ele>172.7</ele>
        <time>2021-05-20T09:04:46Z</time>
      </trkpt>
      <trkpt lat="48.65259" lon="1.74125">
        <ele>172.7</ele>
        <time>2021-05-20T09:05:01Z</time>
      </trkpt>
      <trkpt lat="48.65273" lon="1.74145">
        <ele>172.6</ele>
        <time>2021-05-20T09:05:14Z</time>
      </trkpt>
      <trkpt lat="48.65289" lon="1.74161">
        <ele>172.6</ele>
        <time>2021-05-20T09:05:28Z</time>
      </trkpt>
      <trkpt lat="48.65303" lon="1.74182">
        <ele>172.6</ele>
        <time>2021-05-20T09:05:41Z</time>
      </trkpt>
      <trkpt lat="48.65314" lon="1.74206">
        <ele>172.7</ele>
        <time>2021-05-20T09:05:54Z</time>
      </trkpt>
      <trkpt lat="48.65327" lon="1.74224">
        <ele>172.9</ele>
        <time>2021-05-20T09:06:05Z</time>
      </trkpt>
      <trkpt lat="48.6534" lon="1.74245">
        <ele>172.9</ele>
        <time>2021-05-20T09:06:16Z</time>
      </trkpt>
      <trkpt lat="48.6535" lon="1.74268">
        <ele>173</ele>
        <time>2021-05-20T09:06:35Z</time>
      </trkpt>
      <trkpt lat="48.65363" lon="1.74289">
        <ele>173</ele>
        <time>2021-05-20T09:06:52Z</time>
      </trkpt>
      <trkpt lat="48.65372" lon="1.74312">
        <ele>172.9</ele>
        <time>2021-05-20T09:07:06Z</time>
      </trkpt>
      <trkpt lat="48.6538" lon="1.74338">
        <ele>172.9</ele>
        <time>2021-05-20T09:07:24Z</time>
      </trkpt>
      <trkpt lat="48.65394" lon="1.74358">
        <ele>172.8</ele>
        <time>2021-05-20T09:07:39Z</time>
      </trkpt>
      <trkpt lat="48.65408" lon="1.74375">
        <ele>172.7</ele>
        <time>2021-05-20T09:07:52Z</time>
      </trkpt>
      <trkpt lat="48.65423" lon="1.74391">
        <ele>172.8</ele>
        <time>2021-05-20T09:08:04Z</time>
      </trkpt>
      <trkpt lat="48.65436" lon="1.74411">
        <ele>173.2</ele>
        <time>2021-05-20T09:08:16Z</time>
      </trkpt>
      <trkpt lat="48.65447" lon="1.74433">
        <ele>173.7</ele>
        <time>2021-05-20T09:08:35Z</time>
      </trkpt>
      <trkpt lat="48.65455" lon="1.74459">
        <ele>174</ele>
        <time>2021-05-20T09:08:56Z</time>
      </trkpt>
      <trkpt lat="48.65469" lon="1.74479">
        <ele>174</ele>
        <time>2021-05-20T09:09:15Z</time>
      </trkpt>
      <trkpt lat="48.65482" lon="1.74497">
        <ele>173.6</ele>
        <time>2021-05-20T09:09:36Z</time>
      </trkpt>
      <trkpt lat="48.65492" lon="1.74522">
        <ele>173.6</ele>
        <time>2021-05-20T09:09:57Z</time>
      </trkpt>
      <trkpt lat="48.65507" lon="1.74539">
        <ele>173.3</ele>
        <time>2021-05-20T09:10:10Z</time>
      </trkpt>
      <trkpt lat="48.65505" lon="1.74567">
        <ele>173.8</ele>
        <time>2021-05-20T09:15:28Z</time>
      </trkpt>
      <trkpt lat="48.65509" lon="1.74594">
        <ele>174.2</ele>
        <time>2021-05-20T09:15:57Z</time>
      </trkpt>
      <trkpt lat="48.65528" lon="1.74596">
        <ele>174.3</ele>
        <time>2021-05-20T09:16:12Z</time>
      </trkpt>
      <trkpt lat="48.65546" lon="1.74602">
        <ele>174.5</ele>
        <time>2021-05-20T09:16:31Z</time>
      </trkpt>
      <trkpt lat="48.65563" lon="1.74616">
        <ele>175</ele>
        <time>2021-05-20T09:16:49Z</time>
      </trkpt>
      <trkpt lat="48.65578" lon="1.74635">
        <ele>175.8</ele>
        <time>2021-05-20T09:17:00Z</time>
      </trkpt>
      <trkpt lat="48.65586" lon="1.74659">
        <ele>176.7</ele>
        <time>2021-05-20T09:17:16Z</time>
      </trkpt>
      <trkpt lat="48.65595" lon="1.74684">
        <ele>176.7</ele>
        <time>2021-05-20T09:17:34Z</time>
      </trkpt>
      <trkpt lat="48.65608" lon="1.74704">
        <ele>176.5</ele>
        <time>2021-05-20T09:20:23Z</time>
      </trkpt>
      <trkpt lat="48.65619" lon="1.74727">
        <ele>176.5</ele>
        <time>2021-05-20T09:22:16Z</time>
      </trkpt>
      <trkpt lat="48.6563" lon="1.7475">
        <ele>176.6</ele>
        <time>2021-05-20T09:22:30Z</time>
      </trkpt>
      <trkpt lat="48.65643" lon="1.7477">
        <ele>176.6</ele>
        <time>2021-05-20T09:22:44Z</time>
      </trkpt>
      <trkpt lat="48.65661" lon="1.74763">
        <ele>176.9</ele>
        <time>2021-05-20T09:23:00Z</time>
      </trkpt>
      <trkpt lat="48.65678" lon="1.7475">
        <ele>176.6</ele>
        <time>2021-05-20T09:23:15Z</time>
      </trkpt>
      <trkpt lat="48.65692" lon="1.74729">
        <ele>175.9</ele>
        <time>2021-05-20T09:23:32Z</time>
      </trkpt>
      <trkpt lat="48.65701" lon="1.74706">
        <ele>175.2</ele>
        <time>2021-05-20T09:23:47Z</time>
      </trkpt>
      <trkpt lat="48.65713" lon="1.74684">
        <ele>174.6</ele>
        <time>2021-05-20T09:24:00Z</time>
      </trkpt>
      <trkpt lat="48.65724" lon="1.74662">
        <ele>173.8</ele>
        <time>2021-05-20T09:24:15Z</time>
      </trkpt>
      <trkpt lat="48.65735" lon="1.74639">
        <ele>173.1</ele>
        <time>2021-05-20T09:24:30Z</time>
      </trkpt>
      <trkpt lat="48.65744" lon="1.74613">
        <ele>172.5</ele>
        <time>2021-05-20T09:24:45Z</time>
      </trkpt>
      <trkpt lat="48.65753" lon="1.74589">
        <ele>172.1</ele>
        <time>2021-05-20T09:25:03Z</time>
      </trkpt>
      <trkpt lat="48.65764" lon="1.74566">
        <ele>171.8</ele>
        <time>2021-05-20T09:25:18Z</time>
      </trkpt>
      <trkpt lat="48.65773" lon="1.74542">
        <ele>171.6</ele>
        <time>2021-05-20T09:25:31Z</time>
      </trkpt>
      <trkpt lat="48.65783" lon="1.74519">
        <ele>171.5</ele>
        <time>2021-05-20T09:25:49Z</time>
      </trkpt>
      <trkpt lat="48.65796" lon="1.745">
        <ele>171.7</ele>
        <time>2021-05-20T09:26:08Z</time>
      </trkpt>
      <trkpt lat="48.65814" lon="1.74491">
        <ele>172</ele>
        <time>2021-05-20T09:26:21Z</time>
      </trkpt>
      <trkpt lat="48.6583" lon="1.74476">
        <ele>172</ele>
        <time>2021-05-20T09:26:37Z</time>
      </trkpt>
      <trkpt lat="48.65833" lon="1.74449">
        <ele>171.2</ele>
        <time>2021-05-20T09:27:10Z</time>
      </trkpt>
      <trkpt lat="48.65851" lon="1.74442">
        <ele>171.4</ele>
        <time>2021-05-20T09:27:39Z</time>
      </trkpt>
      <trkpt lat="48.65868" lon="1.74433">
        <ele>171.7</ele>
        <time>2021-05-20T09:28:03Z</time>
      </trkpt>
      <trkpt lat="48.65887" lon="1.74427">
        <ele>172.1</ele>
        <time>2021-05-20T09:28:30Z</time>
      </trkpt>
      <trkpt lat="48.65905" lon="1.74421">
        <ele>172.7</ele>
        <time>2021-05-20T09:28:46Z</time>
      </trkpt>
      <trkpt lat="48.65922" lon="1.74409">
        <ele>172.8</ele>
        <time>2021-05-20T09:29:07Z</time>
      </trkpt>
      <trkpt lat="48.65939" lon="1.74405">
        <ele>172.3</ele>
        <time>2021-05-20T09:29:20Z</time>
      </trkpt>
      <trkpt lat="48.65958" lon="1.74395">
        <ele>171.6</ele>
        <time>2021-05-20T09:29:37Z</time>
      </trkpt>
      <trkpt lat="48.65977" lon="1.74394">
        <ele>171.1</ele>
        <time>2021-05-20T09:29:54Z</time>
      </trkpt>
      <trkpt lat="48.65992" lon="1.74377">
        <ele>170.3</ele>
        <time>2021-05-20T09:30:05Z</time>
      </trkpt>
      <trkpt lat="48.66006" lon="1.74356">
        <ele>169.7</ele>
        <time>2021-05-20T09:30:16Z</time>
      </trkpt>
      <trkpt lat="48.66023" lon="1.74347">
        <ele>170</ele>
        <time>2021-05-20T09:30:30Z</time>
      </trkpt>
      <trkpt lat="48.66036" lon="1.74328">
        <ele>170.1</ele>
        <time>2021-05-20T09:30:54Z</time>
      </trkpt>
      <trkpt lat="48.66051" lon="1.74312">
        <ele>170.1</ele>
        <time>2021-05-20T09:31:13Z</time>
      </trkpt>
      <trkpt lat="48.66067" lon="1.74297">
        <ele>170.4</ele>
        <time>2021-05-20T09:31:30Z</time>
      </trkpt>
      <trkpt lat="48.66078" lon="1.74275">
        <ele>170.3</ele>
        <time>2021-05-20T09:31:40Z</time>
      </trkpt>
      <trkpt lat="48.66094" lon="1.74258">
        <ele>170.6</ele>
        <time>2021-05-20T09:31:52Z</time>
      </trkpt>
      <trkpt lat="48.66109" lon="1.74241">
        <ele>170.9</ele>
        <time>2021-05-20T09:32:08Z</time>
      </trkpt>
      <trkpt lat="48.66117" lon="1.74216">
        <ele>171</ele>
        <time>2021-05-20T09:32:20Z</time>
      </trkpt>
      <trkpt lat="48.66123" lon="1.74191">
        <ele>171.1</ele>
        <time>2021-05-20T09:32:31Z</time>
      </trkpt>
      <trkpt lat="48.66133" lon="1.74166">
        <ele>171.2</ele>
        <time>2021-05-20T09:32:44Z</time>
      </trkpt>
      <trkpt lat="48.6614" lon="1.7414">
        <ele>171.7</ele>
        <time>2021-05-20T09:32:55Z</time>
      </trkpt>
      <trkpt lat="48.66153" lon="1.74119">
        <ele>172</ele>
        <time>2021-05-20T09:33:09Z</time>
      </trkpt>
      <trkpt lat="48.66166" lon="1.74097">
        <ele>172</ele>
        <time>2021-05-20T09:33:23Z</time>
      </trkpt>
      <trkpt lat="48.66178" lon="1.74076">
        <ele>172</ele>
        <time>2021-05-20T09:33:35Z</time>
      </trkpt>
      <trkpt lat="48.6619" lon="1.74054">
        <ele>172.3</ele>
        <time>2021-05-20T09:33:50Z</time>
      </trkpt>
      <trkpt lat="48.66202" lon="1.74032">
        <ele>172.5</ele>
        <time>2021-05-20T09:34:02Z</time>
      </trkpt>
      <trkpt lat="48.66216" lon="1.74012">
        <ele>172.4</ele>
        <time>2021-05-20T09:34:15Z</time>
      </trkpt>
      <trkpt lat="48.66234" lon="1.74016">
        <ele>171.5</ele>
        <time>2021-05-20T09:34:29Z</time>
      </trkpt>
      <trkpt lat="48.66253" lon="1.7402">
        <ele>170.6</ele>
        <time>2021-05-20T09:34:48Z</time>
      </trkpt>
      <trkpt lat="48.6627" lon="1.74029">
        <ele>169.6</ele>
        <time>2021-05-20T09:35:01Z</time>
      </trkpt>
      <trkpt lat="48.66287" lon="1.7404">
        <ele>168.9</ele>
        <time>2021-05-20T09:35:16Z</time>
      </trkpt>
      <trkpt lat="48.66306" lon="1.74039">
        <ele>168.1</ele>
        <time>2021-05-20T09:35:31Z</time>
      </trkpt>
      <trkpt lat="48.66322" lon="1.74025">
        <ele>166.8</ele>
        <time>2021-05-20T09:35:46Z</time>
      </trkpt>
      <trkpt lat="48.66339" lon="1.74013">
        <ele>165.5</ele>
        <time>2021-05-20T09:35:58Z</time>
      </trkpt>
      <trkpt lat="48.66354" lon="1.73995">
        <ele>164.3</ele>
        <time>2021-05-20T09:36:13Z</time>
      </trkpt>
      <trkpt lat="48.66367" lon="1.73974">
        <ele>162.7</ele>
        <time>2021-05-20T09:36:26Z</time>
      </trkpt>
      <trkpt lat="48.66381" lon="1.73956">
        <ele>160.7</ele>
        <time>2021-05-20T09:36:39Z</time>
      </trkpt>
      <trkpt lat="48.66392" lon="1.73934">
        <ele>158.1</ele>
        <time>2021-05-20T09:36:53Z</time>
      </trkpt>
      <trkpt lat="48.66408" lon="1.73921">
        <ele>155.3</ele>
        <time>2021-05-20T09:37:04Z</time>
      </trkpt>
      <trkpt lat="48.66419" lon="1.73898">
        <ele>153.8</ele>
        <time>2021-05-20T09:37:18Z</time>
      </trkpt>
      <trkpt lat="48.66436" lon="1.73884">
        <ele>154.6</ele>
        <time>2021-05-20T09:37:32Z</time>
      </trkpt>
      <trkpt lat="48.66448" lon="1.73864">
        <ele>154.7</ele>
        <time>2021-05-20T09:37:44Z</time>
      </trkpt>
      <trkpt lat="48.66464" lon="1.7385">
        <ele>155</ele>
        <time>2021-05-20T09:37:56Z</time>
      </trkpt>
      <trkpt lat="48.66477" lon="1.73831">
        <ele>154.8</ele>
        <time>2021-05-20T09:38:08Z</time>
      </trkpt>
      <trkpt lat="48.66482" lon="1.73804">
        <ele>153.8</ele>
        <time>2021-05-20T09:38:24Z</time>
      </trkpt>
      <trkpt lat="48.66488" lon="1.73777">
        <ele>152.6</ele>
        <time>2021-05-20T09:38:37Z</time>
      </trkpt>
      <trkpt lat="48.66499" lon="1.73754">
        <ele>151.3</ele>
        <time>2021-05-20T09:38:49Z</time>
      </trkpt>
      <trkpt lat="48.66512" lon="1.73732">
        <ele>151.6</ele>
        <time>2021-05-20T09:39:01Z</time>
      </trkpt>
      <trkpt lat="48.6652" lon="1.73706">
        <ele>150.7</ele>
        <time>2021-05-20T09:39:14Z</time>
      </trkpt>
      <trkpt lat="48.66523" lon="1.73677">
        <ele>148.8</ele>
        <time>2021-05-20T09:39:26Z</time>
      </trkpt>
      <trkpt lat="48.66532" lon="1.73652">
        <ele>148.1</ele>
        <time>2021-05-20T09:39:40Z</time>
      </trkpt>
      <trkpt lat="48.66545" lon="1.73632">
        <ele>148</ele>
        <time>2021-05-20T09:39:56Z</time>
      </trkpt>
      <trkpt lat="48.66558" lon="1.73611">
        <ele>147.2</ele>
        <time>2021-05-20T09:40:10Z</time>
      </trkpt>
      <trkpt lat="48.66564" lon="1.73585">
        <ele>145.4</ele>
        <time>2021-05-20T09:40:22Z</time>
      </trkpt>
      <trkpt lat="48.66573" lon="1.73562">
        <ele>145.2</ele>
        <time>2021-05-20T09:40:37Z</time>
      </trkpt>
      <trkpt lat="48.66577" lon="1.73535">
        <ele>145.2</ele>
        <time>2021-05-20T09:40:50Z</time>
      </trkpt>
      <trkpt lat="48.66594" lon="1.7354">
        <ele>146.5</ele>
        <time>2021-05-20T09:41:51Z</time>
      </trkpt>
      <trkpt lat="48.66602" lon="1.73566">
        <ele>148.1</ele>
        <time>2021-05-20T09:42:07Z</time>
      </trkpt>
      <trkpt lat="48.66614" lon="1.73588">
        <ele>150.8</ele>
        <time>2021-05-20T09:42:21Z</time>
      </trkpt>
      <trkpt lat="48.66632" lon="1.73585">
        <ele>153.9</ele>
        <time>2021-05-20T09:42:35Z</time>
      </trkpt>
      <trkpt lat="48.6665" lon="1.73583">
        <ele>157.1</ele>
        <time>2021-05-20T09:42:53Z</time>
      </trkpt>
      <trkpt lat="48.66663" lon="1.73603">
        <ele>160.4</ele>
        <time>2021-05-20T09:43:09Z</time>
      </trkpt>
      <trkpt lat="48.6667" lon="1.7363">
        <ele>162.6</ele>
        <time>2021-05-20T09:43:26Z</time>
      </trkpt>
      <trkpt lat="48.66682" lon="1.73651">
        <ele>164.9</ele>
        <time>2021-05-20T09:43:43Z</time>
      </trkpt>
      <trkpt lat="48.66687" lon="1.73678">
        <ele>166.7</ele>
        <time>2021-05-20T09:43:58Z</time>
      </trkpt>
      <trkpt lat="48.66697" lon="1.73701">
        <ele>168.8</ele>
        <time>2021-05-20T09:44:14Z</time>
      </trkpt>
      <trkpt lat="48.66714" lon="1.73713">
        <ele>170.6</ele>
        <time>2021-05-20T09:44:31Z</time>
      </trkpt>
      <trkpt lat="48.6673" lon="1.73727">
        <ele>172.2</ele>
        <time>2021-05-20T09:45:00Z</time>
      </trkpt>
      <trkpt lat="48.66745" lon="1.73742">
        <ele>173.6</ele>
        <time>2021-05-20T09:45:15Z</time>
      </trkpt>
      <trkpt lat="48.66761" lon="1.73755">
        <ele>173.6</ele>
        <time>2021-05-20T09:45:27Z</time>
      </trkpt>
      <trkpt lat="48.66778" lon="1.73763">
        <ele>173.3</ele>
        <time>2021-05-20T09:45:39Z</time>
      </trkpt>
      <trkpt lat="48.66796" lon="1.73774">
        <ele>173.3</ele>
        <time>2021-05-20T09:45:52Z</time>
      </trkpt>
      <trkpt lat="48.66806" lon="1.73752">
        <ele>171.4</ele>
        <time>2021-05-20T09:46:21Z</time>
      </trkpt>
      <trkpt lat="48.66824" lon="1.73744">
        <ele>170.2</ele>
        <time>2021-05-20T09:46:53Z</time>
      </trkpt>
      <trkpt lat="48.6684" lon="1.7373">
        <ele>169.2</ele>
        <time>2021-05-20T09:47:06Z</time>
      </trkpt>
      <trkpt lat="48.66855" lon="1.73712">
        <ele>168.9</ele>
        <time>2021-05-20T09:47:21Z</time>
      </trkpt>
      <trkpt lat="48.66863" lon="1.73687">
        <ele>168.2</ele>
        <time>2021-05-20T09:47:34Z</time>
      </trkpt>
      <trkpt lat="48.66877" lon="1.73668">
        <ele>168.1</ele>
        <time>2021-05-20T09:47:50Z</time>
      </trkpt>
      <trkpt lat="48.66893" lon="1.73655">
        <ele>168.3</ele>
        <time>2021-05-20T09:48:02Z</time>
      </trkpt>
      <trkpt lat="48.66907" lon="1.73638">
        <ele>168.1</ele>
        <time>2021-05-20T09:48:14Z</time>
      </trkpt>
      <trkpt lat="48.66922" lon="1.73619">
        <ele>167.9</ele>
        <time>2021-05-20T09:48:29Z</time>
      </trkpt>
      <trkpt lat="48.66935" lon="1.73599">
        <ele>167.5</ele>
        <time>2021-05-20T09:48:42Z</time>
      </trkpt>
      <trkpt lat="48.6695" lon="1.73582">
        <ele>167.5</ele>
        <time>2021-05-20T09:48:55Z</time>
      </trkpt>
      <trkpt lat="48.66963" lon="1.73563">
        <ele>166.8</ele>
        <time>2021-05-20T09:49:08Z</time>
      </trkpt>
      <trkpt lat="48.66979" lon="1.73549">
        <ele>166.5</ele>
        <time>2021-05-20T09:49:22Z</time>
      </trkpt>
      <trkpt lat="48.66992" lon="1.73529">
        <ele>165.7</ele>
        <time>2021-05-20T09:49:34Z</time>
      </trkpt>
      <trkpt lat="48.67002" lon="1.73506">
        <ele>164.6</ele>
        <time>2021-05-20T09:49:49Z</time>
      </trkpt>
      <trkpt lat="48.67021" lon="1.73506">
        <ele>165.3</ele>
        <time>2021-05-20T09:50:01Z</time>
      </trkpt>
      <trkpt lat="48.67038" lon="1.73498">
        <ele>165.6</ele>
        <time>2021-05-20T09:50:19Z</time>
      </trkpt>
      <trkpt lat="48.67047" lon="1.73474">
        <ele>163.3</ele>
        <time>2021-05-20T09:51:09Z</time>
      </trkpt>
      <trkpt lat="48.67055" lon="1.73448">
        <ele>161.2</ele>
        <time>2021-05-20T09:51:23Z</time>
      </trkpt>
      <trkpt lat="48.67063" lon="1.73423">
        <ele>159.4</ele>
        <time>2021-05-20T09:51:59Z</time>
      </trkpt>
      <trkpt lat="48.67079" lon="1.73406">
        <ele>159</ele>
        <time>2021-05-20T09:52:13Z</time>
      </trkpt>
      <trkpt lat="48.67097" lon="1.73412">
        <ele>158.5</ele>
        <time>2021-05-20T09:52:28Z</time>
      </trkpt>
      <trkpt lat="48.67111" lon="1.73431">
        <ele>158.8</ele>
        <time>2021-05-20T09:52:42Z</time>
      </trkpt>
      <trkpt lat="48.67128" lon="1.73443">
        <ele>157.8</ele>
        <time>2021-05-20T09:52:54Z</time>
      </trkpt>
      <trkpt lat="48.6714" lon="1.73465">
        <ele>158.8</ele>
        <time>2021-05-20T09:53:09Z</time>
      </trkpt>
      <trkpt lat="48.67149" lon="1.7349">
        <ele>160.6</ele>
        <time>2021-05-20T09:53:25Z</time>
      </trkpt>
      <trkpt lat="48.67161" lon="1.73512">
        <ele>161.5</ele>
        <time>2021-05-20T09:53:41Z</time>
      </trkpt>
      <trkpt lat="48.67174" lon="1.73532">
        <ele>161.4</ele>
        <time>2021-05-20T09:54:02Z</time>
      </trkpt>
      <trkpt lat="48.67191" lon="1.73537">
        <ele>158.6</ele>
        <time>2021-05-20T09:55:15Z</time>
      </trkpt>
      <trkpt lat="48.67197" lon="1.73564">
        <ele>159.3</ele>
        <time>2021-05-20T09:55:41Z</time>
      </trkpt>
      <trkpt lat="48.67198" lon="1.73593">
        <ele>160.6</ele>
        <time>2021-05-20T09:55:59Z</time>
      </trkpt>
      <trkpt lat="48.67205" lon="1.73618">
        <ele>160</ele>
        <time>2021-05-20T09:56:14Z</time>
      </trkpt>
      <trkpt lat="48.67212" lon="1.73646">
        <ele>159.5</ele>
        <time>2021-05-20T09:56:25Z</time>
      </trkpt>
      <trkpt lat="48.67223" lon="1.73669">
        <ele>158.2</ele>
        <time>2021-05-20T09:56:37Z</time>
      </trkpt>
      <trkpt lat="48.67216" lon="1.73695">
        <ele>159.5</ele>
        <time>2021-05-20T09:56:54Z</time>
      </trkpt>
      <trkpt lat="48.67212" lon="1.73722">
        <ele>160.3</ele>
        <time>2021-05-20T09:57:08Z</time>
      </trkpt>
      <trkpt lat="48.67206" lon="1.7375">
        <ele>161.4</ele>
        <time>2021-05-20T09:57:25Z</time>
      </trkpt>
      <trkpt lat="48.67207" lon="1.73777">
        <ele>160.2</ele>
        <time>2021-05-20T09:57:38Z</time>
      </trkpt>
      <trkpt lat="48.67224" lon="1.73788">
        <ele>156.5</ele>
        <time>2021-05-20T09:58:00Z</time>
      </trkpt>
      <trkpt lat="48.67242" lon="1.7379">
        <ele>153</ele>
        <time>2021-05-20T09:58:15Z</time>
      </trkpt>
    </trkseg>
  </trk>
</gpx>